WEATHER DATA

YESTERDAY
Time Temp. Dewp. Hum. Wind dir Wind speed Wind gust Bar. 1h Prec. 24h Prec.
00:06 18.6 13.2 71 228 0.6 1.7 1015.1 0.0000 0.0000
00:17 18.5 13.6 73 135 0.3 0.8 1015.2 0.0000 0.0000
00:26 18.3 13.6 74 231 0.8 2.2 1015.7 0.0000 0.0000
00:36 18.2 13.7 75 209 0.3 0.8 1015.3 0.0000 0.0000
00:46 18 13.7 76 206 0.3 0.8 1015.4 0.0000 0.0000
00:57 17.8 13.7 77 225 0.3 0.8 1015.5 0.0000 0.0000
01:07 17.7 13.6 77 135 0.3 0.6 1015.4 0.0000 0.0000
01:16 17.6 13.5 77 200 0.3 0.8 1015.4 0.0000 0.0000
01:27 17.5 13.4 77 218 0.6 1.4 1015.4 0.0000 0.0000
01:37 17.3 13.2 77 225 0.3 1.1 1015.3 0.0000 0.0000
01:47 17.2 13.3 78 161 0.3 0.8 1015.3 0.0000 0.0000
01:57 17 13.1 78 225 0.3 1.4 1015.2 0.0000 0.0000
02:08 16.9 13 78 225 0.3 1.1 1015.1 0.0000 0.0000
02:17 16.7 12.8 78 209 0.3 0.8 1015.1 0.0000 0.0000
02:27 16.5 12.8 79 225 0.3 1.1 1015.1 0.0000 0.0000
02:38 16.3 12.7 79 192 0.3 0.8 1014.9 0.0000 0.0000
02:48 16.2 12.6 79 203 0.3 0.8 1015 0.0000 0.0000
02:58 16 12.6 80 217 0.6 1.4 1015 0.0000 0.0000
03:08 15.9 12.5 80 242 0.6 1.4 1015.1 0.0000 0.0000
03:18 15.7 12.3 80 232 0.3 1.1 1015.1 0.0000 0.0000
03:28 15.6 12.2 80 228 0.3 1.4 1015.3 0.0000 0.0000
03:38 15.5 12.3 81 225 0.3 1.7 1015.3 0.0000 0.0000
03:48 15.4 12.2 81 225 0.3 1.4 1015.3 0.0000 0.0000
03:59 15.3 12.2 82 198 0.3 1.1 1015.4 0.0000 0.0000
04:08 15.2 12.2 82 155 0.3 0.6 1015.4 0.0000 0.0000
04:18 15.1 11.9 81 135 0.3 0.6 1015.2 0.0000 0.0000
04:29 14.9 11.7 81 158 0.3 0.6 1015.3 0.0000 0.0000
04:39 14.8 11.6 81 180 0.3 0.8 1015.4 0.0000 0.0000
04:49 14.7 11.7 82 203 0.3 1.1 1015.2 0.0000 0.0000
04:58 14.6 11.6 82 203 0.3 0.8 1015.1 0.0000 0.0000
05:09 14.5 11.5 82 228 0.3 1.1 1015.1 0.0000 0.0000
05:19 14.4 11.6 83 225 0.6 1.1 1015.1 0.0000 0.0000
05:29 14.4 11.4 82 235 0.6 1.4 1015.1 0.0000 0.0000
05:40 14.3 11.3 82 219 0.6 1.1 1015 0.0000 0.0000
05:50 14.3 11.5 83 217 0.3 1.1 1015 0.0000 0.0000
06:09 14.2 11.5 84 233 0.8 1.4 1015.2 0.0000 0.0000
06:20 14.2 11.5 84 229 1.1 2.5 1015.7 0.0000 0.0000
06:30 14.2 11.7 85 233 0.6 1.1 1015.2 0.0000 0.0000
06:40 14.2 11.9 86 123 0.3 0.8 1015.4 0.0000 0.0000
06:50 14.3 12 86 229 0.3 0.8 1015.3 0.0000 0.0000
07:00 14.5 12.4 87 216 0.6 1.4 1015.5 0.0000 0.0000
07:10 14.6 12.5 87 231 0.8 2.2 1015.7 0.0000 0.0000
07:20 14.7 12.6 87 184 0.3 1.1 1016 0.8853 0.8853
07:31 14.8 12.8 88 250 0.8 2.2 1015.8 1.3279 1.3279
07:50 14.9 12.9 88 225 0.6 1.4 1015.8 2.6559 2.6559
08:00 15 13.2 89 225 0.6 1.4 1016 2.6559 2.6559
08:21 15.2 13.4 89 225 0.6 1.4 1016.3 1.7706 2.6559
08:30 15.3 13.5 89 225 0.6 1.4 1016.3 1.3279 2.6559
08:41 15.4 13.8 90 225 0.6 1.4 1016.4 0.0000 2.6559
08:52 15.6 14 90 228 0.3 1.1 1016.4 0.0000 2.6559
09:02 15.7 14.2 91 225 0.3 1.1 1016.5 0.0000 2.6559
09:12 15.9 14.4 91 237 0.6 1.4 1016.7 0.0000 2.6559
09:23 16 14.5 91 253 0.6 1.4 1016.4 0.0000 2.6559
09:33 16.1 14.5 90 228 0.3 1.1 1016.5 0.0000 2.6559
09:42 16.1 14.5 90 234 0.3 0.8 1016.6 0.0000 2.6559
09:52 16.2 14.6 90 270 0.3 1.1 1016.5 0.0000 2.6559
10:03 16.2 14.6 90 270 0.3 0.8 1016.2 0.0000 2.6559
10:13 16.4 14.8 90 225 0.3 0.8 1016.6 0.0000 2.6559
10:23 16.6 15.1 91 270 0.3 1.1 1016.6 0.0000 2.6559
10:33 17.2 15.9 92 233 0.6 1.7 1016.7 0.0000 2.6559
10:44 17.7 16 90 249 0.6 1.7 1016.5 0.0000 2.6559
10:53 18.1 16.3 89 237 0.3 1.4 1016.5 0.0000 2.6559
11:03 18.6 16.6 88 233 0.3 1.1 1016.4 0.0000 2.6559
11:14 19.2 16.8 86 239 0.6 1.4 1016.6 0.1475 2.8035
11:24 19.7 16.5 82 225 0.8 1.9 1016.7 0.1475 2.8035
11:34 20 16.2 79 227 0.8 2.5 1016.6 0.1475 2.8035
11:44 20.2 16 77 232 0.8 1.9 1016.3 0.1475 2.8035
11:55 20.4 16 76 227 0.6 2.2 1016.4 0.1475 2.8035
12:04 20.7 16.1 75 232 0.8 3.1 1016.3 0.0000 2.8035
12:14 20.9 16.1 74 229 0.8 2.5 1016.3 0.0000 2.8035
12:24 21.1 15.9 72 225 1.1 3.3 1016.3 0.0000 2.8035
12:35 21.4 15.5 69 220 0.8 3.3 1016.3 0.0000 2.8035
12:45 21.6 15.4 68 230 1.1 3.1 1016.3 0.0000 2.8035
12:54 21.7 15.3 67 239 0.8 2.8 1016.1 0.0000 2.8035
13:05 21.8 15.2 66 228 1.1 2.8 1016.2 0.0000 2.8035
13:15 22 15.4 66 225 1.1 3.9 1016.2 0.0000 2.8035
13:25 22.2 15.8 67 245 1.1 3.3 1015.9 0.0000 2.8035
13:35 22.2 16 68 256 1.1 3.1 1016 0.0000 2.8035
13:45 22 15.6 67 252 1.4 3.6 1016.1 0.0000 2.8035
13:53 21.7 16.2 71 258 1.4 6.9 1016.8 0.8853 3.6888
14:04 20.8 16.2 75 248 3.1 8.9 1016.6 1.9182 4.7217
14:13 20.3 15.9 76 266 3.3 6.9 1016.4 1.9182 4.7217
14:23 20 16.2 79 270 2.2 5 1016.3 1.9182 4.7217
14:34 20 16.4 80 245 1.7 3.6 1016.2 1.9182 4.7217
14:44 20.1 16.5 80 258 1.1 2.2 1016.1 1.9182 4.7217
14:54 20.3 16.7 80 240 1.1 2.8 1016.1 0.0000 4.7217
15:04 20.4 16.4 78 249 1.1 2.2 1015.8 0.0000 4.7217
15:14 20.4 15.6 74 250 1.7 3.9 1015.9 0.0000 4.7217
15:24 20.2 15.2 73 242 1.7 4.2 1016 0.0000 4.7217
15:34 19.9 15.1 74 253 1.9 4.7 1015.8 0.0000 4.7217
15:44 19.8 15 74 245 1.7 5.3 1015.8 0.0000 4.7217
15:55 19.8 15 74 238 1.9 5 1015.9 0.0000 4.7217
16:05 19.7 14.7 73 248 1.7 4.7 1016 0.0000 4.7217
16:14 19.7 14.5 72 246 1.4 3.6 1015.8 0.0000 4.7217
16:25 19.7 14.3 71 248 1.9 5.3 1015.8 0.0000 4.7217
16:35 19.5 13.9 70 252 2.2 4.4 1015.8 0.0000 4.7217
16:45 19.4 13.6 69 257 2.2 5 1015.8 0.0000 4.7217
16:55 19.4 13.8 70 251 1.7 3.9 1015.9 0.0000 4.7217
17:06 19.3 13.5 69 242 1.9 4.4 1015.9 0.0000 4.7217
17:16 19.2 12.9 67 253 1.9 5.3 1016 0.0000 4.7217
17:25 19.2 12.7 66 251 2.2 5.3 1015.9 0.0000 4.7217
17:35 19.2 12.9 67 247 1.4 3.9 1016 0.0000 4.7217
17:46 19.1 12.4 65 247 1.4 3.9 1016.1 0.0000 4.7217
17:56 18.9 12.4 66 247 1.4 3.9 1016.4 0.0000 4.7217
18:06 18.7 12.5 67 241 1.4 4.2 1016.4 0.0000 4.7217
18:16 18.6 12.6 68 230 0.8 2.5 1016.4 0.0000 4.7217
18:26 18.5 12.5 68 230 0.8 2.5 1016.5 0.0000 4.7217
18:36 18.4 12.2 67 230 0.8 2.5 1016.5 0.0000 4.7217
18:46 18.3 12.1 67 238 1.1 2.5 1016.5 0.0000 4.7217
18:57 18.2 12.2 68 231 0.6 1.4 1016.4 0.0000 4.7217
19:06 18.3 12.5 69 236 0.6 2.2 1016.6 0.0000 4.7217
19:16 18.3 12.5 69 232 0.6 1.9 1016.6 0.0000 4.7217
19:27 18.3 12.1 67 248 1.4 3.9 1016.9 0.0000 4.7217
19:37 18.1 11.9 67 238 0.8 2.5 1017 0.0000 4.7217
19:47 17.9 11.5 66 238 0.8 2.2 1017.1 0.0000 4.7217
19:57 17.7 11.5 67 238 0.8 2.2 1017.3 0.0000 4.7217
20:07 17.7 11.5 67 238 0.8 2.2 1017.5 0.0000 4.7217
20:17 17.6 11.4 67 238 0.8 2.2 1017.5 0.0000 4.7217
20:23 17.5 11.3 67 238 0.8 2.2 1017.7 0.0000 4.7217
20:32 17.4 11.2 67 216 0.6 1.4 1017.9 0.0000 4.7217
20:43 17.1 11.2 68 235 0.6 1.4 1017.8 0.0000 4.7217
20:53 16.8 10.6 67 235 0.6 1.4 1018.2 0.0000 4.7217
21:03 16.6 10.5 67 235 0.6 1.4 1018.3 0.0000 4.7217
21:13 16.5 10.4 67 235 0.6 1.4 1018.3 0.0000 4.7217
21:23 16.3 10.2 67 235 0.6 1.4 1018.3 0.0000 4.7217
21:33 16.1 10.2 68 235 0.6 1.4 1018.3 0.0000 4.7217
21:43 15.9 10 68 235 0.6 1.4 1018.4 0.0000 4.7217
21:54 15.7 9.8 68 235 0.6 1.4 1018.5 0.0000 4.7217
22:03 15.5 9.6 68 235 0.6 1.4 1018.5 0.0000 4.7217
22:13 15.3 9.4 68 270 0.3 0.8 1018.5 0.0000 4.7217
22:23 15.1 9.5 69 230 0.3 0.8 1018.6 0.0000 4.7217
22:33 14.9 9.3 69 225 0.3 1.1 1018.7 0.0000 4.7217
22:43 14.8 9.4 70 201 0.3 0.8 1018.6 0.0000 4.7217
22:53 14.6 9.4 71 202 0.3 0.8 1018.7 0.0000 4.7217
23:04 14.3 9.3 72 202 0.3 0.8 1018.9 0.0000 4.7217
23:13 14.1 9.1 72 202 0.3 0.8 1018.9 0.0000 4.7217
23:23 13.9 8.9 72 202 0.3 0.8 1018.9 0.0000 4.7217
23:35 13.6 8.9 73 202 0.3 0.8 1019 0.0000 4.7217
23:45 13.2 8.5 73 135 0.3 0.6 1019 0.0000 4.7217
23:56 12.9 8.4 74 144 0.3 0.6 1019.1 0.0000

DAY STATISTIC

2018-04-23
TEMPERATURE
AVERAGE
17.4
HIGH
22.2
13:25
LOW
12.9
23:56
PRESSURE
AVERAGE
1016.3
HIGH
1019.1
23:56
LOW
1014.9
02:38
DEWPOINT
AVERAGE
13.1
HIGH
16.8
11:14
LOW
8.4
23:56
HUMIDITY
AVERAGE
76
HIGH
92
10:33
LOW
65
17:46
WIND SPEED
AVERAGE
0.8
HIGH
3.3
14:13
WIND GUST
AVERAGE
2.1
HIGH
8.9
14:04
WIND DIRECTION
PREVAILING
SW
65.7%
N
0.0
NE
0.0
E
0.0
SE
5.0
S
11.4
SW
65.7
W
17.9
NW
0.0
PRECIPITATION
RAIN HOUR
2.7
RAIN DAY
4.7
TEMPERATURE (°C)
LOW
12.9
HIGH
22.2
AVERAGE
17.4
PRESSURE (hpa)
LOW
1014.9
HIGH
1019.1
AVERAGE
1016.3
DEVICE